createdAt,value
2019-01-23T00:31:38.659Z,40.50
2019-01-23T00:32:11.643Z,42.30
2019-01-23T00:33:11.631Z,41.10
2019-01-23T00:34:11.613Z,42.60
2019-01-23T00:35:11.626Z,41.50
2019-01-23T00:36:11.594Z,41.90
2019-01-23T00:37:11.584Z,42.50
2019-01-23T00:38:11.575Z,42.60
2019-01-23T00:39:11.560Z,42.30
2019-01-23T00:40:11.570Z,41.80
2019-01-23T00:41:11.543Z,41.40
2019-01-23T00:42:11.528Z,41.30
2019-01-23T00:43:11.523Z,40.80
2019-01-23T00:44:11.512Z,39.80
2019-01-23T00:45:11.539Z,40.20
2019-01-23T00:46:11.490Z,41.40
2019-01-23T00:47:11.472Z,40.70
2019-01-23T00:48:11.464Z,41.10
2019-01-23T00:49:11.452Z,40.50
2019-01-23T00:50:11.450Z,40.70
2019-01-23T00:51:11.454Z,40.60
2019-01-23T00:52:11.430Z,41.50
2019-01-23T00:53:11.406Z,41.10
2019-01-23T00:54:11.396Z,41.40
2019-01-23T00:55:11.384Z,41.70
2019-01-23T00:56:11.408Z,40.80
2019-01-23T00:57:11.364Z,41.20
2019-01-23T00:58:11.356Z,41.20
2019-01-23T00:59:11.343Z,39.20
2019-01-23T01:00:11.330Z,40.20
2019-01-23T01:01:11.321Z,41.30
2019-01-23T01:02:12.256Z,40.00
2019-01-23T01:03:11.299Z,40.00
2019-01-23T01:04:11.288Z,38.70
2019-01-23T01:05:11.280Z,37.90
2019-01-23T01:06:11.268Z,40.60
2019-01-23T01:07:11.278Z,39.90
2019-01-23T01:08:11.252Z,40.10
2019-01-23T01:09:11.233Z,40.80
2019-01-23T01:10:11.229Z,39.60
2019-01-23T01:11:11.214Z,39.20
2019-01-23T01:12:11.227Z,40.80
2019-01-23T01:13:11.190Z,40.20
2019-01-23T01:14:11.181Z,39.40
2019-01-23T01:15:13.513Z,40.80
2019-01-23T01:16:11.156Z,41.20
2019-01-23T01:17:11.170Z,41.10
2019-01-23T01:18:11.134Z,39.60
2019-01-23T01:19:11.125Z,41.00
2019-01-23T01:20:11.115Z,39.90
2019-01-23T01:21:11.102Z,41.30
2019-01-23T01:22:12.750Z,41.60
2019-01-23T01:23:11.082Z,40.60
2019-01-23T01:24:11.070Z,42.20
2019-01-23T01:25:11.059Z,42.10
2019-01-23T01:26:11.047Z,42.40
2019-01-23T01:27:11.060Z,41.60
2019-01-23T01:28:11.029Z,43.80
2019-01-23T01:29:11.026Z,42.40
2019-01-23T01:30:11.004Z,41.90
2019-01-23T01:31:10.994Z,43.50
2019-01-23T01:32:11.015Z,41.80
2019-01-23T01:33:10.972Z,43.00
2019-01-23T01:34:10.963Z,43.40
2019-01-23T01:35:10.951Z,41.70
2019-01-23T01:36:10.945Z,44.10
2019-01-23T01:37:10.931Z,41.50
2019-01-23T01:38:10.943Z,41.60
2019-01-23T01:39:10.906Z,40.40
2019-01-23T01:40:12.446Z,43.60
2019-01-23T01:41:10.886Z,41.70
2019-01-23T01:42:10.872Z,41.70
2019-01-23T01:43:10.884Z,41.90
2019-01-23T01:44:10.850Z,41.40
2019-01-23T01:45:10.842Z,42.50
2019-01-23T01:46:10.831Z,42.30
2019-01-23T01:47:10.822Z,43.50
2019-01-23T01:48:10.836Z,42.50
2019-01-23T01:49:10.796Z,41.20
2019-01-23T01:50:10.786Z,42.40
2019-01-23T01:51:10.776Z,41.60
2019-01-23T01:52:10.766Z,42.30
2019-01-23T01:53:10.755Z,41.80
2019-01-23T01:54:10.769Z,42.40
2019-01-23T01:55:10.731Z,44.30
2019-01-23T01:56:10.718Z,41.80
2019-01-23T01:57:10.707Z,42.40
2019-01-23T01:58:10.697Z,42.90
2019-01-23T01:59:10.710Z,41.50
2019-01-23T02:00:10.679Z,42.30
2019-01-23T02:01:10.663Z,41.80
2019-01-23T02:02:10.653Z,42.40
2019-01-23T02:03:10.642Z,41.70
2019-01-23T02:04:10.710Z,42.20
2019-01-23T02:05:10.625Z,41.30
2019-01-23T02:06:10.609Z,43.70
2019-01-23T02:07:10.599Z,42.40
2019-01-23T02:08:10.589Z,41.50
2019-01-23T02:09:10.603Z,41.10
2019-01-23T02:10:10.565Z,42.80
2019-01-23T02:11:10.553Z,43.00
2019-01-23T02:12:10.545Z,41.10
2019-01-23T02:13:10.531Z,43.40
2019-01-23T02:14:10.548Z,42.90
2019-01-23T02:15:10.509Z,41.50
2019-01-23T02:16:10.501Z,41.20
2019-01-23T02:17:10.489Z,40.80
2019-01-23T02:18:10.476Z,41.80
2019-01-23T02:19:10.496Z,40.00
2019-01-23T02:20:10.456Z,40.90
2019-01-23T02:21:10.446Z,41.20
2019-01-23T02:22:10.439Z,41.60
2019-01-23T02:23:11.013Z,42.20
2019-01-23T02:24:10.411Z,42.50
2019-01-23T02:25:10.424Z,39.80
2019-01-23T02:26:10.416Z,40.00
2019-01-23T02:27:10.379Z,40.30
2019-01-23T02:28:10.372Z,39.30
2019-01-23T02:29:10.359Z,41.70
2019-01-23T02:30:10.371Z,39.90
2019-01-23T02:31:10.339Z,40.60
2019-01-23T02:32:10.328Z,39.20
2019-01-23T02:33:10.327Z,41.60
2019-01-23T02:34:10.307Z,41.00
2019-01-23T02:35:10.315Z,41.00
2019-01-23T02:36:10.282Z,41.60
2019-01-23T02:37:10.269Z,41.70
2019-01-23T02:38:10.261Z,40.30
2019-01-23T02:39:10.253Z,40.20
2019-01-23T02:40:10.262Z,40.50
2019-01-23T02:41:10.227Z,39.40
2019-01-23T02:42:10.217Z,39.50
2019-01-23T02:43:10.205Z,40.70
2019-01-23T02:44:10.195Z,39.50
2019-01-23T02:45:10.186Z,39.80
2019-01-23T02:46:10.193Z,39.60
2019-01-23T02:47:10.161Z,38.40
2019-01-23T02:48:10.149Z,39.00
2019-01-23T02:49:10.144Z,39.60
2019-01-23T02:50:10.128Z,39.20
2019-01-23T02:51:10.138Z,38.40
2019-01-23T02:52:10.110Z,40.00
2019-01-23T02:53:10.094Z,39.20
2019-01-23T02:54:10.083Z,39.80
2019-01-23T02:55:10.076Z,38.30
2019-01-23T02:56:10.109Z,38.40
2019-01-23T02:57:10.083Z,37.90
2019-01-23T02:58:10.046Z,37.20
2019-01-23T02:59:17.171Z,39.80
2019-01-23T03:00:11.022Z,39.40
2019-01-23T03:01:10.013Z,39.40
2019-01-23T03:02:10.026Z,40.00
2019-01-23T03:03:09.990Z,39.50
2019-01-23T03:04:09.981Z,38.50
2019-01-23T03:05:09.972Z,38.20
2019-01-23T03:06:09.968Z,38.80
2019-01-23T05:20:52.299Z,33.20
2019-01-23T05:21:52.298Z,34.90
2019-01-23T05:22:52.265Z,34.20
2019-01-23T05:23:52.249Z,34.30
2019-01-23T05:24:52.236Z,34.80
2019-01-23T05:25:52.276Z,34.60
2019-01-23T05:26:52.214Z,34.70
2019-01-23T05:27:52.207Z,34.50
2019-01-23T05:28:52.193Z,36.30
2019-01-23T05:29:55.089Z,36.00
2019-01-23T05:30:52.169Z,35.20
2019-01-23T05:31:52.184Z,35.10
2019-01-23T05:32:52.153Z,36.20
2019-01-23T05:33:52.137Z,36.30
2019-01-23T05:34:52.139Z,36.10
2019-01-23T05:35:52.117Z,36.20
2019-01-23T05:36:52.129Z,37.10
2019-01-23T05:37:52.092Z,37.40
2019-01-23T05:38:52.084Z,36.30
2019-01-23T05:39:52.075Z,35.40
2019-01-23T05:40:52.063Z,36.90
2019-01-23T05:41:52.091Z,37.00
2019-01-23T05:42:52.041Z,36.20
2019-01-23T05:43:52.033Z,36.50
2019-01-23T05:44:52.020Z,36.90
2019-01-23T06:04:15.962Z,36.30
2019-01-23T06:05:15.948Z,39.90
2019-01-23T06:06:15.928Z,41.70
2019-01-23T06:07:15.911Z,40.60
2019-01-23T06:08:15.930Z,41.40
2019-01-23T06:09:15.894Z,42.80
2019-01-23T06:10:15.877Z,43.20
2019-01-23T06:11:15.867Z,41.20
2019-01-23T06:12:15.854Z,41.00
2019-01-23T06:13:15.842Z,42.80
2019-01-23T06:14:15.864Z,43.60
2019-01-23T06:15:15.823Z,44.10
2019-01-23T06:16:15.815Z,43.30
2019-01-23T06:17:15.807Z,46.10
2019-01-23T06:18:15.788Z,43.80
2019-01-23T06:19:15.807Z,44.10
2019-01-23T06:20:15.768Z,44.70
2019-01-23T06:21:15.758Z,42.90
2019-01-23T06:22:15.745Z,41.90
2019-01-23T06:23:15.735Z,42.80
2019-01-23T06:24:15.724Z,44.60
2019-01-23T06:25:15.744Z,43.60
2019-01-23T06:26:15.705Z,45.70
2019-01-23T06:27:15.690Z,45.30
2019-01-23T06:28:15.688Z,45.40
2019-01-23T06:29:15.677Z,44.80
2019-01-23T06:30:15.711Z,45.70
2019-01-23T06:31:15.651Z,44.80
2019-01-23T06:32:15.644Z,45.20
2019-01-23T06:33:15.647Z,44.40
2019-01-23T06:34:15.640Z,43.60
2019-01-23T06:35:15.607Z,45.50
2019-01-23T06:36:15.619Z,45.50
2019-01-23T06:37:15.693Z,45.60
2019-01-23T06:38:15.587Z,45.60
2019-01-23T06:44:55.980Z,45.40
2019-01-23T06:45:28.966Z,46.10
2019-01-23T06:46:28.919Z,46.30
2019-01-23T06:47:28.896Z,46.20
2019-01-23T06:48:28.885Z,45.40
2019-01-23T06:49:28.875Z,46.30
2019-01-23T06:50:28.980Z,47.00
2019-01-23T06:51:28.855Z,47.00
2019-01-23T06:52:28.845Z,46.80
2019-01-23T06:53:28.851Z,46.10
2019-01-23T06:54:28.846Z,46.70
2019-01-23T06:55:28.885Z,46.50
2019-01-23T06:56:28.868Z,45.70
2019-01-23T06:57:28.818Z,45.00
2019-01-23T06:58:28.861Z,45.40
2019-01-23T06:59:28.771Z,44.50
2019-01-23T07:00:28.766Z,44.90
2019-01-23T07:01:28.778Z,43.60
2019-01-23T07:02:28.749Z,44.40
2019-01-23T07:03:28.732Z,45.00
2019-01-23T07:04:28.721Z,45.10
2019-01-23T07:05:28.762Z,44.40
2019-01-23T07:06:28.782Z,45.80
2019-01-23T07:07:28.733Z,45.20
2019-01-23T07:08:28.691Z,43.30
2019-01-23T07:09:28.723Z,44.90
2019-01-23T07:10:28.717Z,44.40
2019-01-23T07:11:28.662Z,45.60
2019-01-23T07:12:28.702Z,44.60
2019-01-23T07:13:28.825Z,44.80
2019-01-23T07:14:28.620Z,45.70
2019-01-23T07:15:28.703Z,45.90
2019-01-23T07:16:28.641Z,45.40
2019-01-23T07:17:28.641Z,45.40
2019-01-23T07:18:28.595Z,44.00
2019-01-23T07:19:28.571Z,45.10
2019-01-23T07:20:28.553Z,45.90
2019-01-23T07:21:28.547Z,44.30
2019-01-23T07:22:28.558Z,44.60
2019-01-23T07:23:28.573Z,44.40
2019-01-23T07:24:28.515Z,45.30
2019-01-23T07:25:28.507Z,45.20
2019-01-23T07:26:28.521Z,44.00
2019-01-23T07:27:28.508Z,45.40
2019-01-23T07:28:28.494Z,44.90
2019-01-23T07:29:28.483Z,44.80
2019-01-23T07:30:28.522Z,45.10
2019-01-23T07:31:28.455Z,46.20
2019-01-23T07:32:28.454Z,44.50
2019-01-23T07:33:28.439Z,43.50
2019-01-23T07:34:28.410Z,44.40
2019-01-23T07:35:28.439Z,45.30
2019-01-23T07:36:28.413Z,43.50
2019-01-23T07:37:28.414Z,43.40
2019-01-23T07:38:28.436Z,44.60
2019-01-23T07:39:28.361Z,44.10
2019-01-23T07:40:28.332Z,44.30
2019-01-23T07:41:28.317Z,43.80
2019-01-23T07:42:28.327Z,42.90
2019-01-23T07:43:29.096Z,43.00
2019-01-23T07:44:28.321Z,42.10
2019-01-23T07:45:28.301Z,42.50
2019-01-23T07:46:28.265Z,43.60
2019-01-23T07:47:28.254Z,42.20
2019-01-23T07:48:28.243Z,43.30
2019-01-23T07:49:28.282Z,43.10
2019-01-23T07:50:28.263Z,43.50
2019-01-23T07:51:28.253Z,44.70
2019-01-23T07:52:28.205Z,42.70
2019-01-23T07:53:28.208Z,43.30
2019-01-23T07:54:28.183Z,43.60
2019-01-23T07:55:28.175Z,42.40
2019-01-23T07:56:28.156Z,43.20
2019-01-23T07:57:28.160Z,43.20
2019-01-23T07:58:28.156Z,44.00
2019-01-23T07:59:28.131Z,43.20
2019-01-23T08:00:31.540Z,42.00
2019-01-23T08:01:28.163Z,43.40
2019-01-23T08:02:28.109Z,43.80
2019-01-23T08:03:28.135Z,41.60
2019-01-23T08:04:28.079Z,42.30
2019-01-23T08:05:28.056Z,43.00
2019-01-23T08:06:28.051Z,42.80
2019-01-23T08:07:28.035Z,42.30
2019-01-23T08:08:28.028Z,42.10
2019-01-23T08:09:28.046Z,43.40
2019-01-23T08:10:28.016Z,41.80
2019-01-23T08:11:28.043Z,43.30
2019-01-23T08:12:28.036Z,42.40
2019-01-23T08:13:27.971Z,42.60
2019-01-23T08:14:27.982Z,42.90
2019-01-23T14:56:03.016Z,41.50
2019-01-23T14:56:34.591Z,31.80
2019-01-23T14:57:34.755Z,32.00
2019-01-23T14:58:34.568Z,30.80
2019-01-23T14:59:34.560Z,32.10
2019-01-23T15:00:34.549Z,29.70
2019-01-23T15:01:34.545Z,33.20
2019-01-23T15:02:34.555Z,33.10
2019-01-23T15:03:34.523Z,33.10
2019-01-23T15:04:34.503Z,34.20
2019-01-23T15:05:34.502Z,39.80
2019-01-23T15:06:34.488Z,41.70
2019-01-23T15:07:34.480Z,36.70
2019-01-23T15:08:34.497Z,33.60
2019-01-23T15:09:34.452Z,32.70
2019-01-23T15:10:34.442Z,31.50
2019-01-23T15:11:34.431Z,29.50
2019-01-23T15:12:34.425Z,30.70
2019-01-23T15:13:34.434Z,32.80
2019-01-23T15:14:34.401Z,34.30
2019-01-23T15:15:34.387Z,33.60
2019-01-23T15:16:34.376Z,38.30
2019-01-23T15:17:34.366Z,35.00
2019-01-23T15:18:34.377Z,31.80
2019-01-23T15:19:34.349Z,30.10
2019-01-23T15:20:35.108Z,29.90
2019-01-23T15:55:07.548Z,27.90
2019-01-23T15:55:40.534Z,32.20
2019-01-23T15:56:40.501Z,30.80
2019-01-23T15:57:40.491Z,30.50
2019-01-23T15:58:40.508Z,30.20
2019-01-23T15:59:40.496Z,30.30
2019-01-23T16:00:40.461Z,30.60
2019-01-23T16:01:40.453Z,30.00
2019-01-23T16:02:40.437Z,30.60
2019-01-23T16:03:40.425Z,29.80
2019-01-23T16:04:40.447Z,30.70
2019-01-23T16:05:40.404Z,30.70
2019-01-23T16:26:14.549Z,35.60
2019-01-23T16:26:47.525Z,37.20
2019-01-23T16:27:47.507Z,36.60
2019-01-23T16:28:47.501Z,35.60
2019-01-23T16:29:47.485Z,36.70
2019-01-23T16:30:47.505Z,36.70
2019-01-23T16:31:47.466Z,36.40
2019-01-23T16:32:47.453Z,37.10
2019-01-23T16:33:47.443Z,36.10
2019-01-23T16:34:47.432Z,35.10
2019-01-23T16:35:47.459Z,35.10
2019-01-23T16:36:47.442Z,37.40
2019-01-23T16:37:47.427Z,35.10
2019-01-23T16:38:47.402Z,35.30
2019-01-23T16:39:47.387Z,35.60
2019-01-23T16:40:47.401Z,34.60
2019-01-23T16:41:47.423Z,34.30
2019-01-23T16:42:47.354Z,34.00
2019-01-23T16:43:47.341Z,34.40
2019-01-23T17:42:46.069Z,32.20
2019-01-23T17:43:46.037Z,33.10
2019-01-23T17:44:46.071Z,33.00
2019-01-23T17:45:46.011Z,37.00
2019-01-23T17:46:46.000Z,38.00
2019-01-23T17:47:45.990Z,31.70
2019-01-23T17:48:45.978Z,33.20
2019-01-23T17:49:45.988Z,32.20
2019-01-23T17:50:45.954Z,31.70
2019-01-23T17:51:45.944Z,32.10
2019-01-23T17:52:45.934Z,32.00
2019-01-23T17:53:45.926Z,32.70
2019-01-23T17:54:45.933Z,30.20
2019-01-23T17:55:45.904Z,29.80
2019-01-23T17:56:45.893Z,30.90
2019-01-23T17:57:45.904Z,32.20
2019-01-23T17:58:45.875Z,31.50
2019-01-23T17:59:45.885Z,31.00
2019-01-23T18:00:45.848Z,30.40
2019-01-23T18:01:45.839Z,31.20
2019-01-23T18:02:52.504Z,31.20
2019-01-23T18:03:46.815Z,31.10
2019-01-23T18:04:45.803Z,32.00
2019-01-23T18:05:51.065Z,31.00
2019-01-23T18:06:46.780Z,33.10
2019-01-23T18:07:45.770Z,33.20
2019-01-23T18:08:45.762Z,31.60
2019-01-23T18:09:45.752Z,32.10
2019-01-23T18:10:45.759Z,31.60
2019-01-23T18:11:45.730Z,32.00
2019-01-23T18:12:45.721Z,31.60
2019-01-23T18:13:45.713Z,32.10
2019-01-23T18:14:49.194Z,33.30
2019-01-23T18:15:45.952Z,32.20
2019-01-23T18:16:45.673Z,32.80
2019-01-23T18:17:45.665Z,32.40
2019-01-23T18:18:45.653Z,33.20
2019-01-23T18:19:54.973Z,32.80
2019-01-23T18:20:45.655Z,32.10
2019-01-23T18:21:45.624Z,33.60
2019-01-23T18:22:45.609Z,32.40
2019-01-23T18:23:45.597Z,32.20
2019-01-23T18:24:45.592Z,33.20
2019-01-23T18:25:45.576Z,32.80
2019-01-23T18:26:45.591Z,31.70
2019-01-23T18:27:45.556Z,31.40
2019-01-23T18:28:45.548Z,32.90
2019-01-23T18:29:45.536Z,32.90
2019-01-23T18:30:45.525Z,31.70
2019-01-23T18:31:45.541Z,32.20
2019-01-23T18:32:45.518Z,33.90
2019-01-23T18:33:45.561Z,32.50
2019-01-23T18:34:45.482Z,33.40
2019-01-23T18:35:46.500Z,33.30
2019-01-23T18:36:46.004Z,34.50
2019-01-23T18:40:54.944Z,33.30
2019-01-23T18:41:50.061Z,33.50
2019-01-23T18:42:50.023Z,32.90
2019-01-23T18:43:50.023Z,33.90
2019-01-23T19:20:38.930Z,33.30
2019-01-23T19:21:35.564Z,35.50
2019-01-23T19:22:35.574Z,33.20
2019-01-23T19:23:35.548Z,34.30
2019-01-23T19:24:35.534Z,34.30
2019-01-23T19:25:35.521Z,33.50
2019-01-23T19:26:35.510Z,34.00
2019-01-23T19:27:35.529Z,33.20
2019-01-23T19:28:35.489Z,34.50
2019-01-23T19:29:35.483Z,34.90
2019-01-23T19:30:35.466Z,33.10
2019-01-23T19:31:35.455Z,34.10
2019-01-23T19:32:35.464Z,34.80
2019-01-23T19:33:35.436Z,35.70
2019-01-23T19:34:35.428Z,34.90
2019-01-23T19:35:35.412Z,35.80
2019-01-23T19:36:35.402Z,35.80
2019-01-23T19:37:35.462Z,34.70
2019-01-23T19:38:35.377Z,35.20
2019-01-23T19:39:35.374Z,35.30
2019-01-23T19:40:35.358Z,36.80
2019-01-23T19:41:35.346Z,35.00
2019-01-23T19:42:35.358Z,35.20
2019-01-23T19:43:35.325Z,36.40
2019-01-23T19:44:35.314Z,35.10
2019-01-23T19:45:35.302Z,34.90
2019-01-23T19:46:35.292Z,34.70
2019-01-23T19:47:35.332Z,35.40
2019-01-23T19:48:35.283Z,35.20
2019-01-23T19:49:35.303Z,35.20
2019-01-23T19:50:35.267Z,35.50
2019-01-23T19:51:35.240Z,35.90
2019-01-23T19:52:35.250Z,35.60
2019-01-23T19:53:35.215Z,36.10
2019-01-23T19:54:35.207Z,36.00
2019-01-23T19:55:35.205Z,35.80
2019-01-23T19:56:35.185Z,34.00
2019-01-23T19:57:35.198Z,35.20
2019-01-23T19:58:35.166Z,35.00
2019-01-23T19:59:35.151Z,34.20
2019-01-23T20:00:35.142Z,34.10
2019-01-23T20:01:35.133Z,33.70
2019-01-23T20:02:35.121Z,34.90
2019-01-23T20:03:35.134Z,34.80
2019-01-23T20:04:35.097Z,33.90
2019-01-23T20:05:35.087Z,35.20
2019-01-23T20:06:35.075Z,34.30
2019-01-23T20:07:35.063Z,35.70
2019-01-23T20:08:35.077Z,36.20
2019-01-23T20:09:35.047Z,34.40
2019-01-23T20:10:35.037Z,34.90
2019-01-23T20:11:35.035Z,35.60
2019-01-23T20:12:35.015Z,35.10
2019-01-23T20:13:35.031Z,35.20
2019-01-23T20:14:34.997Z,34.60
2019-01-23T20:15:34.984Z,33.80
2019-01-23T20:16:34.973Z,33.80
2019-01-23T20:17:34.979Z,34.30
2019-01-23T20:18:34.958Z,34.60
2019-01-23T20:19:34.964Z,32.40
2019-01-23T20:20:34.934Z,33.90
2019-01-23T20:21:34.936Z,32.60
2019-01-23T20:22:34.910Z,33.40
2019-01-23T20:23:34.899Z,33.00
2019-01-23T20:24:34.918Z,32.70
2019-01-23T20:25:34.878Z,33.10
2019-01-23T20:26:34.900Z,32.20
2019-01-23T20:27:34.852Z,33.20
2019-01-23T20:28:34.848Z,32.50
2019-01-23T20:29:34.855Z,32.30
2019-01-23T20:30:34.819Z,32.40
2019-01-23T20:31:34.817Z,31.90
2019-01-23T20:32:34.802Z,33.00
2019-01-23T20:33:34.797Z,32.20
2019-01-23T20:34:34.810Z,32.10
2019-01-23T20:35:34.792Z,33.60
2019-01-23T20:36:34.772Z,32.00
2019-01-23T20:37:34.747Z,33.80
2019-01-23T20:38:34.775Z,34.20
2019-01-23T20:39:34.759Z,34.00
2019-01-23T20:40:34.761Z,33.80
2019-01-23T20:41:34.709Z,33.10
2019-01-23T20:42:34.697Z,33.50
2019-01-23T20:43:34.687Z,33.60
2019-01-23T20:44:34.681Z,33.50
2019-01-23T20:45:34.698Z,33.50
2019-01-23T20:46:34.652Z,33.50
2019-01-23T20:47:34.694Z,32.70
2019-01-23T20:48:34.633Z,33.20
2019-01-23T20:49:34.624Z,33.30
2019-01-23T20:50:34.644Z,33.60
2019-01-23T20:51:34.612Z,33.50
2019-01-23T20:52:34.602Z,33.90
2019-01-23T20:53:34.575Z,33.60
2019-01-23T20:54:34.643Z,33.30
2019-01-23T20:55:34.562Z,34.70
2019-01-23T20:56:34.587Z,34.50
2019-01-23T20:57:34.535Z,35.00
2019-01-23T20:58:34.529Z,33.50
2019-01-23T20:59:34.510Z,34.00
2019-01-23T21:00:34.528Z,34.80
2019-01-23T21:01:34.493Z,33.90
2019-01-23T21:02:34.482Z,34.80
2019-01-23T21:03:34.985Z,33.80
2019-01-23T21:04:34.463Z,33.20
2019-01-23T21:05:34.485Z,34.10
2019-01-23T21:06:34.445Z,33.70
2019-01-23T21:07:34.449Z,33.40
2019-01-23T21:08:34.409Z,33.60
2019-01-23T21:09:34.400Z,34.80
2019-01-23T21:10:34.389Z,33.60
2019-01-23T21:11:34.412Z,34.60
2019-01-23T21:12:34.375Z,33.70
2019-01-23T21:13:34.359Z,34.70
2019-01-23T21:14:34.359Z,39.00
2019-01-23T21:15:34.359Z,39.10
2019-01-23T21:16:34.333Z,38.20
2019-01-23T21:17:34.315Z,39.30
2019-01-23T21:18:34.305Z,43.00
2019-01-23T21:19:34.293Z,44.00
2019-01-23T21:20:34.310Z,46.30
2019-01-23T21:21:34.284Z,42.50
2019-01-23T21:22:34.259Z,40.60
2019-01-23T21:23:34.253Z,40.90
2019-01-23T21:24:34.239Z,40.70
2019-01-23T21:25:34.223Z,39.00
2019-01-23T21:26:34.238Z,38.70
2019-01-23T21:27:34.217Z,37.80
2019-01-23T21:28:34.198Z,36.40
2019-01-23T21:29:34.184Z,35.40
2019-01-23T21:30:34.174Z,34.10
2019-01-23T21:31:34.185Z,33.50
2019-01-23T21:32:34.153Z,35.10
2019-01-23T21:33:34.145Z,33.70
2019-01-23T21:34:34.133Z,34.20
2019-01-23T21:35:34.122Z,34.50
2019-01-23T21:36:34.135Z,33.70
2019-01-23T21:37:34.096Z,34.30
2019-01-23T21:38:34.086Z,35.20
2019-01-23T22:08:51.723Z,33.70
2019-01-23T22:09:51.699Z,35.00
2019-01-23T22:10:51.679Z,34.60
2019-01-23T22:11:51.669Z,34.50
2019-01-23T22:12:51.658Z,34.20
2019-01-23T22:13:52.114Z,34.30
2019-01-23T22:14:51.635Z,34.80
2019-01-23T22:15:51.625Z,35.80
2019-01-23T22:16:51.614Z,34.20
2019-01-23T22:17:51.603Z,35.20
2019-01-23T22:18:51.612Z,37.00
2019-01-23T22:19:51.578Z,35.20
2019-01-23T22:20:51.569Z,33.90
2019-01-23T22:21:51.570Z,35.40
2019-01-23T22:22:51.553Z,34.50
2019-01-23T22:23:51.571Z,34.80
2019-01-23T22:24:51.536Z,35.40
2019-01-23T22:25:51.521Z,35.20
2019-01-23T22:26:51.510Z,34.50
2019-01-23T22:27:51.500Z,34.50
2019-01-23T22:28:51.540Z,36.60
2019-01-23T22:29:51.478Z,35.20
2019-01-23T22:30:51.464Z,35.00
2019-01-23T22:31:51.454Z,34.90
2019-01-23T22:32:51.446Z,34.40
2019-01-23T22:33:56.080Z,34.90
2019-01-23T22:34:52.476Z,34.10
2019-01-23T22:35:51.421Z,33.90
2019-01-23T22:36:51.398Z,35.60
2019-01-23T22:37:51.387Z,34.70
2019-01-23T22:38:51.420Z,35.30
2019-01-23T22:39:51.392Z,34.30
2019-01-23T22:40:51.355Z,34.90
2019-01-23T22:41:51.345Z,35.30
